Aérodrome :
LOGIN :

S'inscrire | Disclaimer

   EN    FR    IT 

 










Légende :    VFR   VFR Marginal   IFR   IFR Intensif   IFR Très Intensif
Visi : 
Plafond : 
>= 8 km
>= 3000ft
5 à 8 km
1000 à 3000 ft
1500m à 5 km
500 à 1000 ft
800 à 1500m
200 à 500 ft
< 800m
< 200 ft
Symboles :   Orages  Brouillard  Fortes neiges  Fortes précipitations  Vent > 20 kt
SIGMETs :   Divers  Orages  Givrage  Turbulence  Onde Orograph.  Cendres Volcan.






- Altitude de l'aérodrome : 681 ft
- Code IATA : LBA


EGNM - Leeds Bradford

DERNIER METAR :
  • 110320Z 23016G26KT 9999 -SHRA FEW032 04/02 Q1001

METARs EXPIRÉS :
  • 110250Z 23018KT CAVOK 04/03 Q1001
  • 110220Z 22017G27KT CAVOK 05/03 Q1001
  • 110150Z 23019KT CAVOK 05/02 Q1000
  • 110120Z 24019G31KT CAVOK 05/03 Q1000
  • 110050Z 24016KT 9999 FEW028 05/03 Q1000

TAF TAF EGNM
Valide du 11 à 00h jusqu'au 12 à 00h UTC


102301Z 1100/1124 25012KT 9999 FEW030
PROB40
TEMPO 1100/1105 25015G25KT
TEMPO 1112/1118 6000 SHRA BKN009
ATIS : +44 113 250 9696 (x2489)



MET'MAP, la Météo Aéronautique d'un coup d'oeil ! - Copyright ORBIFLY Décembre 2007 - Disclaimer

ORBIFLY MET'MAP TEAM :

Programmation & Développement : Alexandra Zaïnal
Sur une idée originale de : Baudouin d'Aumeries
Assistance à la programmation : Marc-Olivier Méhu
Soutien technique & logistique : Manuel Goepfert

Contact : metmap@orbifly.com




SOURCES & CREDITS :

   NOAA